Edna T. Gattle — WDD2528 — position and weather

sailwx.info

Track history (hours):
 
Tides and Currents Weather Stations Pressure Air Temp Water Temp Dewpoint Dewpoint Depression Visibility Wind Speed Wind Dir Waves Ship Positions

Edna T. Gattle

Owner: Terral RiverService, Inc., Lake Providence, LA. More information available from US FCC via Universal Licensing System and Coast Guard Vessel Documentation Center.

Last reported at 2017-Jun-19 23:26 UTC. Time now 2017-Jun-27 03:49 UTC.
Position N 29°51' W 091°55'.

Length 33 m; draft 2.8 m.

Type: Towing. MMSI: 367116420.

Date/timePositionNaut miles runAvg speedWind from/ knotsBaromVisibWave heightAir tempDewpointWater temp
2017-Jun-19 23:26N 29°51' W 091°55'3 6.7
2017-Jun-19 22:55N 29°50' W 091°59'3 7.0
2017-Jun-19 22:31N 29°49' W 092°02'3 6.8
2017-Jun-19 22:01N 29°48' W 092°06'3 6.7
2017-Jun-19 21:31N 29°47' W 092°09'1 3.0
2017-Jun-19 21:01N 29°47' W 092°11'0 0.0
2017-Jun-19 19:58N 29°47' W 092°11'0 0.0
2017-Jun-19 19:31N 29°47' W 092°11'1 2.1
2017-Jun-19 19:01N 29°47' W 092°10'2 4.2
2017-Jun-19 18:31N 29°47' W 092°07'2 3.1
2017-Jun-19 18:01N 29°48' W 092°06'3 4.2
2017-Jun-19 17:18N 29°49' W 092°03'1 4.5
2017-Jun-19 17:01N 29°49' W 092°01'2 4.7
2017-Jun-19 16:30N 29°50' W 091°58'3 4.4
2017-Jun-19 15:46N 29°51' W 091°55'  
2017-Jun-16 12:30N 30°59' W 091°48'  
Track history (hours):
 
Tides and Currents Weather Stations Pressure Air Temp Water Temp Dewpoint Dewpoint Depression Visibility Wind Speed Wind Dir Waves Ship Positions

Edna T. Gattle

Owner: Terral RiverService, Inc., Lake Providence, LA. More information available from US FCC via Universal Licensing System and Coast Guard Vessel Documentation Center.

Last reported at 2017-Jun-19 23:26 UTC. Time now 2017-Jun-27 03:49 UTC.
Position N 29°51' W 091°55'.

Length 33 m; draft 2.8 m.

Type: Towing. MMSI: 367116420.

Date/timePositionNaut miles runAvg speedWind from/ knotsBaromVisibWave heightAir tempDewpointWater temp
2017-Jun-19 23:26N 29°51' W 091°55'3 6.7
2017-Jun-19 22:55N 29°50' W 091°59'3 7.0
2017-Jun-19 22:31N 29°49' W 092°02'3 6.8
2017-Jun-19 22:01N 29°48' W 092°06'3 6.7
2017-Jun-19 21:31N 29°47' W 092°09'1 3.0
2017-Jun-19 21:01N 29°47' W 092°11'0 0.0
2017-Jun-19 19:58N 29°47' W 092°11'0 0.0
2017-Jun-19 19:31N 29°47' W 092°11'1 2.1
2017-Jun-19 19:01N 29°47' W 092°10'2 4.2
2017-Jun-19 18:31N 29°47' W 092°07'2 3.1
2017-Jun-19 18:01N 29°48' W 092°06'3 4.2
2017-Jun-19 17:18N 29°49' W 092°03'1 4.5
2017-Jun-19 17:01N 29°49' W 092°01'2 4.7
2017-Jun-19 16:30N 29°50' W 091°58'3 4.4
2017-Jun-19 15:46N 29°51' W 091°55'  
2017-Jun-16 12:30N 30°59' W 091°48'  

Dump ship's entire track history